sensor_id;sensor_type;location;lat;lon;timestamp;P1;durP1;ratioP1;P2;durP2;ratioP2
7045;SDS011;3564;53.326;10.356;2022-12-24T00:01:32;9.37;;;6.73;;
7045;SDS011;3564;53.326;10.356;2022-12-24T00:03:58;11.93;;;7.13;;
7045;SDS011;3564;53.326;10.356;2022-12-24T00:06:24;12.93;;;7.40;;
7045;SDS011;3564;53.326;10.356;2022-12-24T00:08:50;12.47;;;7.23;;
7045;SDS011;3564;53.326;10.356;2022-12-24T00:11:16;14.33;;;8.23;;
7045;SDS011;3564;53.326;10.356;2022-12-24T00:13:42;14.70;;;8.80;;
7045;SDS011;3564;53.326;10.356;2022-12-24T00:16:07;12.67;;;7.37;;
7045;SDS011;3564;53.326;10.356;2022-12-24T00:18:33;10.87;;;7.57;;
7045;SDS011;3564;53.326;10.356;2022-12-24T00:20:58;10.93;;;7.83;;
7045;SDS011;3564;53.326;10.356;2022-12-24T00:23:27;13.63;;;8.73;;
7045;SDS011;3564;53.326;10.356;2022-12-24T00:25:53;17.03;;;10.90;;
7045;SDS011;3564;53.326;10.356;2022-12-24T00:28:19;15.27;;;10.47;;
7045;SDS011;3564;53.326;10.356;2022-12-24T00:30:45;17.40;;;9.77;;
7045;SDS011;3564;53.326;10.356;2022-12-24T00:33:14;13.93;;;8.23;;
7045;SDS011;3564;53.326;10.356;2022-12-24T00:35:40;12.37;;;8.40;;
7045;SDS011;3564;53.326;10.356;2022-12-24T00:38:05;14.13;;;8.43;;
7045;SDS011;3564;53.326;10.356;2022-12-24T00:40:32;11.23;;;7.10;;
7045;SDS011;3564;53.326;10.356;2022-12-24T00:42:57;11.40;;;7.17;;
7045;SDS011;3564;53.326;10.356;2022-12-24T00:45:23;10.07;;;7.00;;
7045;SDS011;3564;53.326;10.356;2022-12-24T00:47:50;11.53;;;7.33;;
7045;SDS011;3564;53.326;10.356;2022-12-24T00:50:16;11.70;;;7.37;;
7045;SDS011;3564;53.326;10.356;2022-12-24T00:52:41;12.93;;;7.40;;
7045;SDS011;3564;53.326;10.356;2022-12-24T00:55:07;11.43;;;8.03;;
7045;SDS011;3564;53.326;10.356;2022-12-24T00:57:33;12.93;;;7.87;;
7045;SDS011;3564;53.326;10.356;2022-12-24T00:59:58;12.40;;;7.67;;
7045;SDS011;3564;53.326;10.356;2022-12-24T01:02:24;12.50;;;7.97;;
7045;SDS011;3564;53.326;10.356;2022-12-24T01:04:50;13.73;;;8.97;;
7045;SDS011;3564;53.326;10.356;2022-12-24T01:07:34;9.70;;;7.60;;
7045;SDS011;3564;53.326;10.356;2022-12-24T01:10:01;12.97;;;8.27;;
7045;SDS011;3564;53.326;10.356;2022-12-24T01:12:26;10.50;;;6.70;;
7045;SDS011;3564;53.326;10.356;2022-12-24T01:14:52;11.97;;;7.90;;
7045;SDS011;3564;53.326;10.356;2022-12-24T01:17:18;12.40;;;8.50;;
7045;SDS011;3564;53.326;10.356;2022-12-24T01:19:43;14.37;;;8.40;;
7045;SDS011;3564;53.326;10.356;2022-12-24T01:22:09;12.83;;;8.63;;
7045;SDS011;3564;53.326;10.356;2022-12-24T01:24:34;10.77;;;7.50;;
7045;SDS011;3564;53.326;10.356;2022-12-24T01:27:00;13.00;;;7.90;;
7045;SDS011;3564;53.326;10.356;2022-12-24T01:29:25;12.67;;;8.40;;
7045;SDS011;3564;53.326;10.356;2022-12-24T01:31:51;12.40;;;8.47;;
7045;SDS011;3564;53.326;10.356;2022-12-24T01:34:19;14.20;;;9.40;;
7045;SDS011;3564;53.326;10.356;2022-12-24T01:36:45;14.87;;;9.37;;
7045;SDS011;3564;53.326;10.356;2022-12-24T01:39:10;13.63;;;8.63;;
7045;SDS011;3564;53.326;10.356;2022-12-24T01:41:36;13.23;;;8.90;;
7045;SDS011;3564;53.326;10.356;2022-12-24T01:44:22;13.23;;;8.73;;
7045;SDS011;3564;53.326;10.356;2022-12-24T01:46:58;15.63;;;10.03;;
7045;SDS011;3564;53.326;10.356;2022-12-24T01:49:38;15.33;;;9.70;;
7045;SDS011;3564;53.326;10.356;2022-12-24T01:52:15;17.00;;;9.83;;
7045;SDS011;3564;53.326;10.356;2022-12-24T01:54:46;15.93;;;10.37;;
7045;SDS011;3564;53.326;10.356;2022-12-24T01:57:23;17.33;;;10.30;;
7045;SDS011;3564;53.326;10.356;2022-12-24T01:59:54;15.73;;;9.77;;
7045;SDS011;3564;53.326;10.356;2022-12-24T02:02:24;18.27;;;11.40;;
7045;SDS011;3564;53.326;10.356;2022-12-24T02:05:11;18.23;;;10.37;;
7045;SDS011;3564;53.326;10.356;2022-12-24T02:07:58;20.03;;;11.13;;
7045;SDS011;3564;53.326;10.356;2022-12-24T02:10:26;18.63;;;11.33;;
7045;SDS011;3564;53.326;10.356;2022-12-24T02:12:52;20.57;;;11.30;;
7045;SDS011;3564;53.326;10.356;2022-12-24T02:15:18;18.20;;;11.47;;
7045;SDS011;3564;53.326;10.356;2022-12-24T02:17:54;19.63;;;11.60;;
7045;SDS011;3564;53.326;10.356;2022-12-24T02:28:45;19.23;;;11.47;;
7045;SDS011;3564;53.326;10.356;2022-12-24T02:31:22;18.67;;;11.23;;
7045;SDS011;3564;53.326;10.356;2022-12-24T02:33:58;21.47;;;11.47;;
7045;SDS011;3564;53.326;10.356;2022-12-24T02:36:32;19.63;;;11.13;;
7045;SDS011;3564;53.326;10.356;2022-12-24T02:39:05;21.97;;;11.47;;
7045;SDS011;3564;53.326;10.356;2022-12-24T02:41:39;20.37;;;10.97;;
7045;SDS011;3564;53.326;10.356;2022-12-24T02:44:27;16.07;;;10.60;;
7045;SDS011;3564;53.326;10.356;2022-12-24T02:46:58;18.13;;;11.33;;
7045;SDS011;3564;53.326;10.356;2022-12-24T02:49:28;17.77;;;10.87;;
7045;SDS011;3564;53.326;10.356;2022-12-24T02:51:54;19.07;;;11.67;;
7045;SDS011;3564;53.326;10.356;2022-12-24T02:54:19;19.20;;;11.57;;
7045;SDS011;3564;53.326;10.356;2022-12-24T02:57:07;19.77;;;10.53;;
7045;SDS011;3564;53.326;10.356;2022-12-24T03:05:12;18.03;;;10.57;;
7045;SDS011;3564;53.326;10.356;2022-12-24T03:13:16;13.67;;;8.83;;
7045;SDS011;3564;53.326;10.356;2022-12-24T03:15:46;15.47;;;9.70;;
7045;SDS011;3564;53.326;10.356;2022-12-24T03:18:13;15.97;;;9.50;;
7045;SDS011;3564;53.326;10.356;2022-12-24T03:20:45;14.70;;;9.03;;
7045;SDS011;3564;53.326;10.356;2022-12-24T03:23:46;14.20;;;9.43;;
7045;SDS011;3564;53.326;10.356;2022-12-24T03:26:12;13.70;;;9.17;;
7045;SDS011;3564;53.326;10.356;2022-12-24T03:28:40;16.17;;;10.03;;
7045;SDS011;3564;53.326;10.356;2022-12-24T03:31:07;14.03;;;9.03;;
7045;SDS011;3564;53.326;10.356;2022-12-24T03:33:33;17.03;;;8.67;;
7045;SDS011;3564;53.326;10.356;2022-12-24T03:35:59;12.27;;;7.90;;
7045;SDS011;3564;53.326;10.356;2022-12-24T03:38:24;13.30;;;9.00;;
7045;SDS011;3564;53.326;10.356;2022-12-24T03:40:50;12.67;;;8.23;;
7045;SDS011;3564;53.326;10.356;2022-12-24T03:43:15;12.73;;;8.40;;
7045;SDS011;3564;53.326;10.356;2022-12-24T03:45:41;13.57;;;8.50;;
7045;SDS011;3564;53.326;10.356;2022-12-24T03:48:10;13.60;;;8.53;;
7045;SDS011;3564;53.326;10.356;2022-12-24T03:50:35;12.37;;;8.50;;
7045;SDS011;3564;53.326;10.356;2022-12-24T03:53:01;13.20;;;8.37;;
7045;SDS011;3564;53.326;10.356;2022-12-24T03:55:27;13.80;;;8.97;;
7045;SDS011;3564;53.326;10.356;2022-12-24T03:57:53;12.77;;;7.60;;
7045;SDS011;3564;53.326;10.356;2022-12-24T04:00:19;12.43;;;8.33;;
7045;SDS011;3564;53.326;10.356;2022-12-24T04:02:46;11.27;;;8.13;;
7045;SDS011;3564;53.326;10.356;2022-12-24T04:05:16;11.97;;;7.80;;
7045;SDS011;3564;53.326;10.356;2022-12-24T04:07:43;13.67;;;7.50;;
7045;SDS011;3564;53.326;10.356;2022-12-24T04:10:10;11.80;;;7.57;;
7045;SDS011;3564;53.326;10.356;2022-12-24T04:12:36;12.07;;;8.00;;
7045;SDS011;3564;53.326;10.356;2022-12-24T04:15:02;12.50;;;7.70;;
7045;SDS011;3564;53.326;10.356;2022-12-24T04:17:28;13.60;;;8.60;;
7045;SDS011;3564;53.326;10.356;2022-12-24T04:19:57;11.70;;;7.77;;
7045;SDS011;3564;53.326;10.356;2022-12-24T04:22:23;11.90;;;7.63;;
7045;SDS011;3564;53.326;10.356;2022-12-24T04:24:48;12.37;;;8.20;;
7045;SDS011;3564;53.326;10.356;2022-12-24T04:27:14;11.90;;;7.63;;
7045;SDS011;3564;53.326;10.356;2022-12-24T04:29:40;10.93;;;7.70;;
7045;SDS011;3564;53.326;10.356;2022-12-24T04:32:06;13.27;;;8.37;;
7045;SDS011;3564;53.326;10.356;2022-12-24T04:34:31;11.10;;;7.37;;
7045;SDS011;3564;53.326;10.356;2022-12-24T04:36:57;10.77;;;7.63;;
7045;SDS011;3564;53.326;10.356;2022-12-24T04:39:22;12.13;;;7.23;;
7045;SDS011;3564;53.326;10.356;2022-12-24T04:41:48;11.17;;;7.87;;
7045;SDS011;3564;53.326;10.356;2022-12-24T04:44:14;12.10;;;8.10;;
7045;SDS011;3564;53.326;10.356;2022-12-24T04:46:39;13.30;;;8.37;;
7045;SDS011;3564;53.326;10.356;2022-12-24T04:49:06;13.93;;;8.53;;
7045;SDS011;3564;53.326;10.356;2022-12-24T04:51:32;13.40;;;7.83;;
7045;SDS011;3564;53.326;10.356;2022-12-24T04:53:58;11.97;;;8.17;;
7045;SDS011;3564;53.326;10.356;2022-12-24T04:56:25;12.53;;;7.93;;
7045;SDS011;3564;53.326;10.356;2022-12-24T04:58:53;12.33;;;8.63;;
7045;SDS011;3564;53.326;10.356;2022-12-24T05:01:21;12.87;;;8.20;;
7045;SDS011;3564;53.326;10.356;2022-12-24T05:03:51;12.07;;;8.13;;
7045;SDS011;3564;53.326;10.356;2022-12-24T05:06:21;12.20;;;7.93;;
7045;SDS011;3564;53.326;10.356;2022-12-24T05:08:48;12.57;;;8.27;;
7045;SDS011;3564;53.326;10.356;2022-12-24T05:11:14;11.47;;;7.87;;
7045;SDS011;3564;53.326;10.356;2022-12-24T05:13:44;12.27;;;8.50;;
7045;SDS011;3564;53.326;10.356;2022-12-24T05:16:26;12.87;;;8.47;;
7045;SDS011;3564;53.326;10.356;2022-12-24T05:18:51;12.83;;;8.53;;
7045;SDS011;3564;53.326;10.356;2022-12-24T05:21:19;13.23;;;8.40;;
7045;SDS011;3564;53.326;10.356;2022-12-24T05:23:46;11.83;;;7.80;;
7045;SDS011;3564;53.326;10.356;2022-12-24T05:29:04;11.17;;;8.20;;
7045;SDS011;3564;53.326;10.356;2022-12-24T05:31:32;11.13;;;8.20;;
7045;SDS011;3564;53.326;10.356;2022-12-24T05:34:00;11.83;;;7.67;;
7045;SDS011;3564;53.326;10.356;2022-12-24T05:36:27;13.87;;;8.63;;
7045;SDS011;3564;53.326;10.356;2022-12-24T05:38:52;14.07;;;8.10;;
7045;SDS011;3564;53.326;10.356;2022-12-24T05:41:18;12.43;;;8.17;;
7045;SDS011;3564;53.326;10.356;2022-12-24T05:43:44;12.23;;;8.00;;
7045;SDS011;3564;53.326;10.356;2022-12-24T05:46:11;13.53;;;8.10;;
7045;SDS011;3564;53.326;10.356;2022-12-24T05:48:39;10.73;;;7.70;;
7045;SDS011;3564;53.326;10.356;2022-12-24T05:51:06;12.07;;;7.73;;
7045;SDS011;3564;53.326;10.356;2022-12-24T05:53:33;13.63;;;8.33;;
7045;SDS011;3564;53.326;10.356;2022-12-24T05:56:07;12.87;;;7.83;;
7045;SDS011;3564;53.326;10.356;2022-12-24T05:58:34;13.40;;;8.70;;
7045;SDS011;3564;53.326;10.356;2022-12-24T06:01:00;11.20;;;7.40;;
7045;SDS011;3564;53.326;10.356;2022-12-24T06:03:28;11.50;;;7.70;;
7045;SDS011;3564;53.326;10.356;2022-12-24T06:06:04;11.67;;;7.27;;
7045;SDS011;3564;53.326;10.356;2022-12-24T06:08:32;11.33;;;7.30;;
7045;SDS011;3564;53.326;10.356;2022-12-24T06:10:59;10.30;;;7.07;;
7045;SDS011;3564;53.326;10.356;2022-12-24T06:13:27;10.93;;;6.97;;
7045;SDS011;3564;53.326;10.356;2022-12-24T06:15:57;12.03;;;7.80;;
7045;SDS011;3564;53.326;10.356;2022-12-24T06:18:23;10.13;;;7.57;;
7045;SDS011;3564;53.326;10.356;2022-12-24T06:20:49;9.87;;;6.67;;
7045;SDS011;3564;53.326;10.356;2022-12-24T06:23:16;11.43;;;7.33;;
7045;SDS011;3564;53.326;10.356;2022-12-24T06:25:42;9.97;;;6.87;;
7045;SDS011;3564;53.326;10.356;2022-12-24T06:28:07;10.90;;;7.23;;
7045;SDS011;3564;53.326;10.356;2022-12-24T06:30:33;11.13;;;7.23;;
7045;SDS011;3564;53.326;10.356;2022-12-24T06:32:58;10.67;;;6.77;;
7045;SDS011;3564;53.326;10.356;2022-12-24T06:35:24;11.40;;;7.40;;
7045;SDS011;3564;53.326;10.356;2022-12-24T06:37:49;11.33;;;7.50;;
7045;SDS011;3564;53.326;10.356;2022-12-24T06:40:15;10.57;;;7.20;;
7045;SDS011;3564;53.326;10.356;2022-12-24T06:42:40;11.27;;;7.43;;
7045;SDS011;3564;53.326;10.356;2022-12-24T06:45:06;9.97;;;7.10;;
7045;SDS011;3564;53.326;10.356;2022-12-24T06:47:32;12.10;;;7.10;;
7045;SDS011;3564;53.326;10.356;2022-12-24T06:49:57;8.60;;;6.17;;
7045;SDS011;3564;53.326;10.356;2022-12-24T06:52:23;10.43;;;7.07;;
7045;SDS011;3564;53.326;10.356;2022-12-24T06:54:48;12.20;;;6.23;;
7045;SDS011;3564;53.326;10.356;2022-12-24T06:57:14;9.13;;;6.13;;
7045;SDS011;3564;53.326;10.356;2022-12-24T06:59:39;9.90;;;6.67;;
7045;SDS011;3564;53.326;10.356;2022-12-24T07:02:05;9.57;;;6.30;;
7045;SDS011;3564;53.326;10.356;2022-12-24T07:04:30;9.43;;;6.30;;
7045;SDS011;3564;53.326;10.356;2022-12-24T07:06:56;8.10;;;5.60;;
7045;SDS011;3564;53.326;10.356;2022-12-24T07:09:22;8.50;;;5.93;;
7045;SDS011;3564;53.326;10.356;2022-12-24T07:11:47;9.73;;;5.77;;
7045;SDS011;3564;53.326;10.356;2022-12-24T07:14:13;7.97;;;5.97;;
7045;SDS011;3564;53.326;10.356;2022-12-24T07:16:38;8.50;;;5.63;;
7045;SDS011;3564;53.326;10.356;2022-12-24T07:19:04;10.80;;;6.13;;
7045;SDS011;3564;53.326;10.356;2022-12-24T07:21:29;7.63;;;5.60;;
7045;SDS011;3564;53.326;10.356;2022-12-24T07:23:55;8.00;;;5.83;;
7045;SDS011;3564;53.326;10.356;2022-12-24T07:26:20;7.83;;;5.50;;
7045;SDS011;3564;53.326;10.356;2022-12-24T07:28:46;12.30;;;5.70;;
7045;SDS011;3564;53.326;10.356;2022-12-24T07:31:11;7.30;;;5.20;;
7045;SDS011;3564;53.326;10.356;2022-12-24T07:33:37;8.37;;;6.00;;
7045;SDS011;3564;53.326;10.356;2022-12-24T07:36:04;8.37;;;5.67;;
7045;SDS011;3564;53.326;10.356;2022-12-24T07:38:31;8.80;;;5.87;;
7045;SDS011;3564;53.326;10.356;2022-12-24T07:40:58;7.63;;;4.90;;
7045;SDS011;3564;53.326;10.356;2022-12-24T07:43:24;7.43;;;5.43;;
7045;SDS011;3564;53.326;10.356;2022-12-24T07:45:53;6.43;;;4.97;;
7045;SDS011;3564;53.326;10.356;2022-12-24T07:48:20;8.33;;;5.60;;
7045;SDS011;3564;53.326;10.356;2022-12-24T07:50:47;6.47;;;5.03;;
7045;SDS011;3564;53.326;10.356;2022-12-24T07:53:13;7.17;;;5.63;;
7045;SDS011;3564;53.326;10.356;2022-12-24T07:55:39;6.77;;;4.83;;
7045;SDS011;3564;53.326;10.356;2022-12-24T07:58:04;7.30;;;5.13;;
7045;SDS011;3564;53.326;10.356;2022-12-24T08:00:30;7.13;;;5.17;;
7045;SDS011;3564;53.326;10.356;2022-12-24T08:02:56;7.53;;;5.20;;
7045;SDS011;3564;53.326;10.356;2022-12-24T08:05:23;7.37;;;5.10;;
7045;SDS011;3564;53.326;10.356;2022-12-24T08:07:50;6.53;;;5.03;;
7045;SDS011;3564;53.326;10.356;2022-12-24T08:10:16;5.80;;;4.43;;
7045;SDS011;3564;53.326;10.356;2022-12-24T08:12:41;5.63;;;4.37;;
7045;SDS011;3564;53.326;10.356;2022-12-24T08:15:07;7.67;;;5.13;;
7045;SDS011;3564;53.326;10.356;2022-12-24T08:17:33;7.00;;;5.17;;
7045;SDS011;3564;53.326;10.356;2022-12-24T08:19:59;5.93;;;4.50;;
7045;SDS011;3564;53.326;10.356;2022-12-24T08:22:24;6.60;;;4.47;;
7045;SDS011;3564;53.326;10.356;2022-12-24T08:24:50;6.23;;;4.27;;
7045;SDS011;3564;53.326;10.356;2022-12-24T08:27:15;5.30;;;4.27;;
7045;SDS011;3564;53.326;10.356;2022-12-24T08:29:41;6.50;;;4.40;;
7045;SDS011;3564;53.326;10.356;2022-12-24T08:32:06;7.70;;;4.90;;
7045;SDS011;3564;53.326;10.356;2022-12-24T08:34:32;7.30;;;5.87;;
7045;SDS011;3564;53.326;10.356;2022-12-24T08:36:57;6.77;;;5.00;;
7045;SDS011;3564;53.326;10.356;2022-12-24T08:39:23;5.90;;;4.30;;
7045;SDS011;3564;53.326;10.356;2022-12-24T08:41:49;7.07;;;4.53;;
7045;SDS011;3564;53.326;10.356;2022-12-24T08:44:15;7.07;;;4.57;;
7045;SDS011;3564;53.326;10.356;2022-12-24T08:46:40;5.57;;;4.20;;
7045;SDS011;3564;53.326;10.356;2022-12-24T08:49:06;5.90;;;4.27;;
7045;SDS011;3564;53.326;10.356;2022-12-24T08:51:31;7.30;;;4.27;;
7045;SDS011;3564;53.326;10.356;2022-12-24T08:53:57;5.90;;;4.10;;
7045;SDS011;3564;53.326;10.356;2022-12-24T08:56:22;4.40;;;3.57;;
7045;SDS011;3564;53.326;10.356;2022-12-24T08:58:48;5.50;;;4.20;;
7045;SDS011;3564;53.326;10.356;2022-12-24T09:01:14;6.87;;;4.47;;
7045;SDS011;3564;53.326;10.356;2022-12-24T09:03:42;5.73;;;4.30;;
7045;SDS011;3564;53.326;10.356;2022-12-24T09:06:08;5.97;;;4.13;;
7045;SDS011;3564;53.326;10.356;2022-12-24T09:08:34;4.97;;;3.80;;
7045;SDS011;3564;53.326;10.356;2022-12-24T09:11:07;5.50;;;4.37;;
7045;SDS011;3564;53.326;10.356;2022-12-24T09:13:35;5.70;;;4.47;;
7045;SDS011;3564;53.326;10.356;2022-12-24T09:16:01;4.43;;;3.60;;
7045;SDS011;3564;53.326;10.356;2022-12-24T09:18:27;7.87;;;4.87;;
7045;SDS011;3564;53.326;10.356;2022-12-24T09:21:00;6.43;;;4.60;;
7045;SDS011;3564;53.326;10.356;2022-12-24T09:23:26;6.47;;;4.37;;
7045;SDS011;3564;53.326;10.356;2022-12-24T09:25:54;6.03;;;4.30;;
7045;SDS011;3564;53.326;10.356;2022-12-24T09:28:20;6.37;;;3.93;;
7045;SDS011;3564;53.326;10.356;2022-12-24T09:30:53;5.40;;;4.23;;
7045;SDS011;3564;53.326;10.356;2022-12-24T09:33:21;7.20;;;4.23;;
7045;SDS011;3564;53.326;10.356;2022-12-24T09:35:48;5.17;;;4.40;;
7045;SDS011;3564;53.326;10.356;2022-12-24T09:38:15;6.37;;;4.33;;
7045;SDS011;3564;53.326;10.356;2022-12-24T09:40:46;7.60;;;5.40;;
7045;SDS011;3564;53.326;10.356;2022-12-24T09:43:15;5.93;;;4.47;;
7045;SDS011;3564;53.326;10.356;2022-12-24T09:45:51;4.60;;;3.97;;
7045;SDS011;3564;53.326;10.356;2022-12-24T09:48:28;7.47;;;4.57;;
7045;SDS011;3564;53.326;10.356;2022-12-24T09:51:08;6.70;;;4.80;;
7045;SDS011;3564;53.326;10.356;2022-12-24T09:53:39;7.93;;;5.07;;
7045;SDS011;3564;53.326;10.356;2022-12-24T09:56:46;6.03;;;4.47;;
7045;SDS011;3564;53.326;10.356;2022-12-24T09:59:15;6.60;;;4.87;;
7045;SDS011;3564;53.326;10.356;2022-12-24T10:01:43;6.40;;;5.00;;
7045;SDS011;3564;53.326;10.356;2022-12-24T10:04:13;5.53;;;4.67;;
7045;SDS011;3564;53.326;10.356;2022-12-24T10:12:08;6.10;;;4.67;;
7045;SDS011;3564;53.326;10.356;2022-12-24T10:17:36;4.93;;;4.10;;
7045;SDS011;3564;53.326;10.356;2022-12-24T10:23:19;5.33;;;4.20;;
7045;SDS011;3564;53.326;10.356;2022-12-24T10:26:06;6.47;;;4.87;;
7045;SDS011;3564;53.326;10.356;2022-12-24T10:31:31;6.77;;;4.87;;
7045;SDS011;3564;53.326;10.356;2022-12-24T10:34:00;6.10;;;4.70;;
7045;SDS011;3564;53.326;10.356;2022-12-24T10:36:31;6.20;;;4.80;;
7045;SDS011;3564;53.326;10.356;2022-12-24T10:38:56;6.60;;;4.87;;
7045;SDS011;3564;53.326;10.356;2022-12-24T10:41:23;5.00;;;4.50;;
7045;SDS011;3564;53.326;10.356;2022-12-24T10:43:50;6.80;;;4.57;;
7045;SDS011;3564;53.326;10.356;2022-12-24T10:46:21;4.83;;;4.07;;
7045;SDS011;3564;53.326;10.356;2022-12-24T10:49:01;5.10;;;4.17;;
7045;SDS011;3564;53.326;10.356;2022-12-24T10:51:33;5.60;;;4.70;;
7045;SDS011;3564;53.326;10.356;2022-12-24T10:54:15;4.60;;;4.20;;
7045;SDS011;3564;53.326;10.356;2022-12-24T10:56:42;5.90;;;4.30;;
7045;SDS011;3564;53.326;10.356;2022-12-24T11:01:58;4.93;;;4.17;;
7045;SDS011;3564;53.326;10.356;2022-12-24T11:04:26;4.80;;;4.17;;
7045;SDS011;3564;53.326;10.356;2022-12-24T11:06:57;4.80;;;4.30;;
7045;SDS011;3564;53.326;10.356;2022-12-24T11:11:53;5.07;;;4.00;;
7045;SDS011;3564;53.326;10.356;2022-12-24T11:14:20;4.40;;;3.67;;
7045;SDS011;3564;53.326;10.356;2022-12-24T11:16:50;5.37;;;3.93;;
7045;SDS011;3564;53.326;10.356;2022-12-24T11:19:19;5.13;;;3.80;;
7045;SDS011;3564;53.326;10.356;2022-12-24T11:22:03;5.13;;;4.50;;
7045;SDS011;3564;53.326;10.356;2022-12-24T11:24:32;4.70;;;3.90;;
7045;SDS011;3564;53.326;10.356;2022-12-24T11:27:21;6.43;;;4.20;;
7045;SDS011;3564;53.326;10.356;2022-12-24T11:29:52;6.30;;;4.47;;
7045;SDS011;3564;53.326;10.356;2022-12-24T11:32:43;6.00;;;4.73;;
7045;SDS011;3564;53.326;10.356;2022-12-24T11:35:15;7.10;;;4.60;;
7045;SDS011;3564;53.326;10.356;2022-12-24T11:40:24;6.73;;;4.40;;
7045;SDS011;3564;53.326;10.356;2022-12-24T11:42:52;5.87;;;4.40;;
7045;SDS011;3564;53.326;10.356;2022-12-24T11:45:24;7.00;;;4.90;;
7045;SDS011;3564;53.326;10.356;2022-12-24T11:47:54;6.53;;;4.87;;
7045;SDS011;3564;53.326;10.356;2022-12-24T11:50:27;6.67;;;5.33;;
7045;SDS011;3564;53.326;10.356;2022-12-24T11:55:32;5.83;;;4.87;;
7045;SDS011;3564;53.326;10.356;2022-12-24T11:58:22;7.33;;;5.40;;
7045;SDS011;3564;53.326;10.356;2022-12-24T12:01:01;7.47;;;6.30;;
7045;SDS011;3564;53.326;10.356;2022-12-24T12:04:19;6.23;;;4.87;;
7045;SDS011;3564;53.326;10.356;2022-12-24T12:06:34;7.20;;;5.17;;
7045;SDS011;3564;53.326;10.356;2022-12-24T12:09:09;7.93;;;5.30;;
7045;SDS011;3564;53.326;10.356;2022-12-24T12:11:39;7.13;;;5.27;;
7045;SDS011;3564;53.326;10.356;2022-12-24T12:14:08;6.20;;;5.10;;
7045;SDS011;3564;53.326;10.356;2022-12-24T12:17:00;7.37;;;5.37;;
7045;SDS011;3564;53.326;10.356;2022-12-24T12:19:31;10.93;;;5.87;;
7045;SDS011;3564;53.326;10.356;2022-12-24T12:22:03;8.53;;;5.60;;
7045;SDS011;3564;53.326;10.356;2022-12-24T12:24:38;9.47;;;5.90;;
7045;SDS011;3564;53.326;10.356;2022-12-24T12:30:03;10.87;;;5.53;;
7045;SDS011;3564;53.326;10.356;2022-12-24T12:37:50;8.93;;;6.00;;
7045;SDS011;3564;53.326;10.356;2022-12-24T12:40:22;10.30;;;5.57;;
7045;SDS011;3564;53.326;10.356;2022-12-24T12:43:11;9.53;;;5.77;;
7045;SDS011;3564;53.326;10.356;2022-12-24T12:48:42;11.47;;;6.27;;
7045;SDS011;3564;53.326;10.356;2022-12-24T12:51:22;10.23;;;6.00;;
7045;SDS011;3564;53.326;10.356;2022-12-24T12:56:43;12.57;;;6.67;;
7045;SDS011;3564;53.326;10.356;2022-12-24T12:59:13;9.60;;;6.33;;
7045;SDS011;3564;53.326;10.356;2022-12-24T13:05:05;9.93;;;5.60;;
7045;SDS011;3564;53.326;10.356;2022-12-24T13:13:56;14.90;;;6.43;;
7045;SDS011;3564;53.326;10.356;2022-12-24T13:16:39;14.10;;;5.80;;
7045;SDS011;3564;53.326;10.356;2022-12-24T13:22:02;16.50;;;5.70;;
7045;SDS011;3564;53.326;10.356;2022-12-24T13:24:28;14.67;;;5.93;;
7045;SDS011;3564;53.326;10.356;2022-12-24T13:26:59;13.80;;;5.30;;
7045;SDS011;3564;53.326;10.356;2022-12-24T13:34:51;22.83;;;6.37;;
7045;SDS011;3564;53.326;10.356;2022-12-24T13:40:02;15.73;;;5.07;;
7045;SDS011;3564;53.326;10.356;2022-12-24T13:42:51;12.73;;;4.40;;
7045;SDS011;3564;53.326;10.356;2022-12-24T13:50:42;19.97;;;4.87;;
7045;SDS011;3564;53.326;10.356;2022-12-24T13:53:22;15.33;;;4.83;;
7045;SDS011;3564;53.326;10.356;2022-12-24T13:58:41;21.83;;;5.13;;
7045;SDS011;3564;53.326;10.356;2022-12-24T14:06:06;16.67;;;5.37;;
7045;SDS011;3564;53.326;10.356;2022-12-24T14:08:37;16.73;;;4.83;;
7045;SDS011;3564;53.326;10.356;2022-12-24T14:18:39;16.03;;;5.87;;
7045;SDS011;3564;53.326;10.356;2022-12-24T14:21:14;15.40;;;5.10;;
7045;SDS011;3564;53.326;10.356;2022-12-24T14:23:52;18.90;;;5.03;;
7045;SDS011;3564;53.326;10.356;2022-12-24T14:26:26;15.27;;;5.17;;
7045;SDS011;3564;53.326;10.356;2022-12-24T14:28:59;18.80;;;5.93;;
7045;SDS011;3564;53.326;10.356;2022-12-24T14:31:30;20.20;;;5.87;;
7045;SDS011;3564;53.326;10.356;2022-12-24T14:34:05;17.80;;;5.83;;
7045;SDS011;3564;53.326;10.356;2022-12-24T14:36:33;14.20;;;5.00;;
7045;SDS011;3564;53.326;10.356;2022-12-24T14:39:00;14.70;;;4.87;;
7045;SDS011;3564;53.326;10.356;2022-12-24T14:41:41;17.30;;;5.67;;
7045;SDS011;3564;53.326;10.356;2022-12-24T14:47:20;13.80;;;4.97;;
7045;SDS011;3564;53.326;10.356;2022-12-24T14:55:49;12.27;;;4.20;;
7045;SDS011;3564;53.326;10.356;2022-12-24T14:58:20;11.63;;;4.63;;
7045;SDS011;3564;53.326;10.356;2022-12-24T15:00:49;11.20;;;4.63;;
7045;SDS011;3564;53.326;10.356;2022-12-24T15:03:17;8.37;;;4.03;;
7045;SDS011;3564;53.326;10.356;2022-12-24T15:05:44;10.30;;;4.33;;
7045;SDS011;3564;53.326;10.356;2022-12-24T15:08:15;11.20;;;4.10;;
7045;SDS011;3564;53.326;10.356;2022-12-24T15:10:44;9.10;;;4.07;;
7045;SDS011;3564;53.326;10.356;2022-12-24T15:13:21;9.97;;;4.70;;
7045;SDS011;3564;53.326;10.356;2022-12-24T15:15:51;7.93;;;4.07;;
7045;SDS011;3564;53.326;10.356;2022-12-24T15:18:20;6.33;;;4.07;;
7045;SDS011;3564;53.326;10.356;2022-12-24T15:20:50;10.17;;;3.77;;
7045;SDS011;3564;53.326;10.356;2022-12-24T15:23:24;7.13;;;3.73;;
7045;SDS011;3564;53.326;10.356;2022-12-24T15:28:36;12.43;;;4.77;;
7045;SDS011;3564;53.326;10.356;2022-12-24T15:31:07;12.50;;;4.60;;
7045;SDS011;3564;53.326;10.356;2022-12-24T15:33:36;7.37;;;4.40;;
7045;SDS011;3564;53.326;10.356;2022-12-24T15:36:03;16.33;;;5.10;;
7045;SDS011;3564;53.326;10.356;2022-12-24T15:38:32;14.73;;;5.33;;
7045;SDS011;3564;53.326;10.356;2022-12-24T15:41:01;16.27;;;5.77;;
7045;SDS011;3564;53.326;10.356;2022-12-24T15:43:29;19.17;;;7.07;;
7045;SDS011;3564;53.326;10.356;2022-12-24T15:45:55;17.97;;;6.17;;
7045;SDS011;3564;53.326;10.356;2022-12-24T15:48:25;17.63;;;7.03;;
7045;SDS011;3564;53.326;10.356;2022-12-24T15:50:56;13.20;;;6.50;;
7045;SDS011;3564;53.326;10.356;2022-12-24T15:53:26;15.77;;;6.47;;
7045;SDS011;3564;53.326;10.356;2022-12-24T15:56:01;21.70;;;6.73;;
7045;SDS011;3564;53.326;10.356;2022-12-24T15:58:30;20.33;;;6.20;;
7045;SDS011;3564;53.326;10.356;2022-12-24T16:01:02;19.23;;;5.60;;
7045;SDS011;3564;53.326;10.356;2022-12-24T16:03:58;10.70;;;4.50;;
7045;SDS011;3564;53.326;10.356;2022-12-24T16:06:24;10.17;;;4.40;;
7045;SDS011;3564;53.326;10.356;2022-12-24T16:08:51;13.53;;;4.30;;
7045;SDS011;3564;53.326;10.356;2022-12-24T16:16:28;14.83;;;5.00;;
7045;SDS011;3564;53.326;10.356;2022-12-24T16:19:05;11.13;;;4.13;;
7045;SDS011;3564;53.326;10.356;2022-12-24T16:21:40;9.77;;;4.80;;
7045;SDS011;3564;53.326;10.356;2022-12-24T16:24:17;8.70;;;3.90;;
7045;SDS011;3564;53.326;10.356;2022-12-24T16:26:51;11.10;;;5.13;;
7045;SDS011;3564;53.326;10.356;2022-12-24T16:29:17;12.57;;;4.43;;
7045;SDS011;3564;53.326;10.356;2022-12-24T16:31:46;13.57;;;5.00;;
7045;SDS011;3564;53.326;10.356;2022-12-24T16:34:14;8.97;;;4.90;;
7045;SDS011;3564;53.326;10.356;2022-12-24T16:36:41;14.83;;;5.57;;
7045;SDS011;3564;53.326;10.356;2022-12-24T16:39:15;18.53;;;5.43;;
7045;SDS011;3564;53.326;10.356;2022-12-24T16:41:53;14.30;;;6.23;;
7045;SDS011;3564;53.326;10.356;2022-12-24T16:44:38;22.13;;;7.17;;
7045;SDS011;3564;53.326;10.356;2022-12-24T16:47:05;19.87;;;6.37;;
7045;SDS011;3564;53.326;10.356;2022-12-24T16:49:35;16.73;;;6.10;;
7045;SDS011;3564;53.326;10.356;2022-12-24T16:52:04;18.17;;;6.27;;
7045;SDS011;3564;53.326;10.356;2022-12-24T16:54:30;20.53;;;6.63;;
7045;SDS011;3564;53.326;10.356;2022-12-24T16:56:56;18.00;;;6.90;;
7045;SDS011;3564;53.326;10.356;2022-12-24T16:59:22;18.83;;;6.60;;
7045;SDS011;3564;53.326;10.356;2022-12-24T17:01:48;17.20;;;6.43;;
7045;SDS011;3564;53.326;10.356;2022-12-24T17:04:15;18.30;;;6.53;;
7045;SDS011;3564;53.326;10.356;2022-12-24T17:06:42;21.97;;;7.30;;